Terminal Aerodrome Forecast
Issued by NWS Shreveport, LA

Home | Current Version | Previous Version | Text Only | Print | Product List | Glossary On
Versions: 1 2 3 4 5 6 7 8 9 10 11 12 13 14 15 16 17 18
000
FTUS44 KSHV 142300
TAFTXK
TAF
KTXK 142337Z 1500/1524 08004KT P6SM BKN250
     FM150400 VRB03KT P6SM BKN250
     FM151500 12005KT P6SM SCT030 BKN200=

USA.gov is the U.S. government's official web portal to all federal, state and local government web resources and services.